Sullivan Crossroads, SC

4:40 AM EST on January 23, 2017 (GMT -0500)
MLCRS1 | | Change Station
Active Advisory: Lake Wind Advisory Active Notice: Public Information Statement

Elev 380 ft 33.92 °N, 82.14 °W | Updated 31 minutes ago

Mostly Cloudy
Mostly Cloudy
49.0 °F
Feels Like 49.0 °F
N
2.0
Wind Variable Wind from West
Gusts 8.0 mph

Today
High -- | Low -- °F
--% Chance of Precip.
Yesterday
High -- | Low -- °F
Precip. -- in
Pressure 29.23 in
Visibility 10.0 miles
Clouds Mostly Cloudy 1700 ft
Dew Point 45.0 °F
Humidity 86%
Rainfall in
Snow Depth Not available.
7:30 AM 5:50 PM
Waning Crescent, 20% visible
SPECI KGRD 230936Z AUTO 00000KT 10SM BKN017 09/07 A2923 RMK AO2 T00890072 $
Pressure 29.23 in
Visibility 10.0 miles
Clouds Mostly Cloudy 1700 ft
Dew Point 45.0 °F
Humidity 86%
Rainfall in
Snow Depth Not available.
7:30 AM 5:50 PM
Waning Crescent, 20% visible
SPECI KGRD 230936Z AUTO 00000KT 10SM BKN017 09/07 A2923 RMK AO2 T00890072 $

Get Your Daily Forecast Email!

Thanks for signing up!

Be on the lookout for a verification email in your inbox.

You'll start receiving the daily forecast at 8 AM.

×

10-Day Weather Forecast

Almanac

Astronomy

Jan. 23, 2017 Rise Set
Actual Time
Civil Twilight
Nautical Twilight
Astronomical Twilight
Moon
Length of Visible Light
Length of Day
Tomorrow will be .
, % of the Moon is Illuminated

Today's Extremes

State Highs State Lows

Community

WunderPhotos

Upload Photos

1,962,540 photos uploaded!

WunderBlog® & News

Nearby

Air Quality

  Air Quality AQ Index Pollutant
Not available.

Snow Depth

Station Depth Elevation

Earthquake Activity

City Distance Mag. Time & Date
Minimum magnitude displayed is 2.5.

Coastal Water Temperatures

Place Temperature

Stations

Nearby Weather Stations

Station Location Temp. Windchill Dew Point Humidity Wind Precip. Elev Updated Type
                   

Watches & Warnings

Lake Wind Advisory
Issued: 2:37 AM EST Jan. 23, 2017 – National Weather Service

... Lake Wind Advisory now in effect until 4 am EST Tuesday...

* timing... through 400 am Tuesday.

* Winds... southwest to west 15 to 25 knots today... and west to
northwest 15 to 25 knots tonight.

* Impacts... hazardous conditions will occur on area lakes.

Precautionary/preparedness actions...

A lake Wind Advisory indicates that winds will cause rough chop
on area lakes. Small boats will be especially prone to capsizing.